createdAt,value
2017-06-27T18:57:50.811Z,20.6
2017-06-27T18:58:12.775Z,20.7
2017-06-27T18:58:34.610Z,20.6
2017-06-27T18:58:55.824Z,20.6
2017-06-27T18:59:17.500Z,20.7
2017-06-27T18:59:38.939Z,20.5
2017-06-27T19:00:00.957Z,20.5
2017-06-27T19:00:21.622Z,20.6
2017-06-27T19:00:44.359Z,20.6
2017-06-27T19:01:05.481Z,20.6
2017-06-27T19:01:27.075Z,20.6
2017-06-27T19:01:49.317Z,20.5
2017-06-27T19:02:14.930Z,20.5
2017-06-27T19:02:36.485Z,20.5
2017-06-27T19:02:57.211Z,20.6
2017-06-27T19:03:19.487Z,20.5
2017-06-27T19:03:41.113Z,20.5
2017-06-27T19:04:02.486Z,20.4
2017-06-27T19:04:23.863Z,20.4
2017-06-27T19:04:44.856Z,20.5
2017-06-27T19:05:07.609Z,20.5
2017-06-27T19:05:30.042Z,20.4
2017-06-27T19:05:51.468Z,20.5
2017-06-27T19:06:12.144Z,20.4
2017-06-27T19:06:34.130Z,20.4
2017-06-27T19:06:55.870Z,20.4
2017-06-27T19:07:17.806Z,20.4
2017-06-27T19:07:41.736Z,20.4
2017-06-27T19:08:04.601Z,20.3
2017-06-27T19:08:27.967Z,20.4
2017-06-27T19:08:49.231Z,20.4
2017-06-27T19:09:10.351Z,20.4
2017-06-27T19:09:31.037Z,20.3
2017-06-27T19:09:51.694Z,20.4
2017-06-27T19:10:12.343Z,20.3
2017-06-27T19:10:33.866Z,20.4
2017-06-27T19:10:54.547Z,20.4
2017-06-27T19:11:15.195Z,20.4
2017-06-27T19:11:35.859Z,20.4
2017-06-27T19:11:56.539Z,20.4
2017-06-27T19:12:17.988Z,20.3
2017-06-27T19:12:39.482Z,20.3
2017-06-27T19:13:00.149Z,20.3
2017-06-27T19:13:20.797Z,20.4
2017-06-27T19:13:42.029Z,20.4
2017-06-27T19:14:04.479Z,20.4
2017-06-27T19:14:25.141Z,20.4
2017-06-27T19:14:45.796Z,20.3
2017-06-27T19:15:06.463Z,20.3
2017-06-27T19:15:27.139Z,20.3
2017-06-27T19:15:47.798Z,20.3
2017-06-27T19:16:08.454Z,20.4
2017-06-27T19:16:29.107Z,20.3
2017-06-27T19:16:49.758Z,20.3
2017-06-27T19:17:10.426Z,20.3
2017-06-27T19:17:31.072Z,20.3
2017-06-27T19:17:53.484Z,20.2
2017-06-27T19:18:14.134Z,20.3
2017-06-27T19:18:34.786Z,20.3
2017-06-27T19:18:56.090Z,20.3
2017-06-27T19:19:16.760Z,20.3
2017-06-27T19:19:38.946Z,20.2
2017-06-27T19:19:59.650Z,20.2
2017-06-27T19:20:20.291Z,20.2
2017-06-27T19:20:40.978Z,20.3
2017-06-27T19:21:01.645Z,20.2
2017-06-27T19:21:22.309Z,20.2
2017-06-27T19:21:42.965Z,20.2
2017-06-27T19:22:04.546Z,20.1
2017-06-27T19:22:25.213Z,20.1
2017-06-27T19:22:45.908Z,20.2
2017-06-27T19:23:07.398Z,20.2
2017-06-27T19:23:28.068Z,20.2
2017-06-27T19:23:48.734Z,20.1
2017-06-27T19:24:09.440Z,20.2
2017-06-27T19:24:30.098Z,20.2
2017-06-27T19:24:50.746Z,20.2
2017-06-27T19:25:11.406Z,20.1
2017-06-27T19:25:32.052Z,20.1
2017-06-27T19:25:53.481Z,20.2
2017-06-27T19:26:14.139Z,20.1
2017-06-27T19:26:36.526Z,20.1
2017-06-27T19:26:57.230Z,20.1
2017-06-27T19:27:17.930Z,20.1
2017-06-27T19:27:39.585Z,20.2
2017-06-27T19:28:00.246Z,20.2
2017-06-27T19:28:21.736Z,20.1
2017-06-27T19:28:42.880Z,20.1
2017-06-27T19:29:03.536Z,20.1
2017-06-27T19:29:25.006Z,20.1
2017-06-27T19:29:45.710Z,20
2017-06-27T19:30:07.883Z,20.1
2017-06-27T19:30:29.042Z,20.1
2017-06-27T19:30:49.715Z,20.1
2017-06-27T19:31:11.006Z,20.1
2017-06-27T19:31:31.685Z,20
2017-06-27T19:31:52.396Z,20.2
2017-06-27T19:32:14.018Z,20.1
2017-06-27T19:32:34.668Z,20.1
2017-06-27T19:32:55.326Z,20.1
2017-06-27T19:33:16.019Z,20.2
2017-06-27T19:33:37.642Z,20.1
2017-06-27T19:33:58.414Z,20.2
2017-06-27T19:34:19.112Z,20.1
2017-06-27T19:34:40.467Z,20
2017-06-27T19:35:02.059Z,20.1
2017-06-27T19:35:22.466Z,20.1
2017-06-27T19:35:43.708Z,20
2017-06-27T19:36:07.054Z,20
2017-06-27T19:36:28.657Z,20.1
2017-06-27T19:36:50.010Z,20
2017-06-27T19:37:11.410Z,20
2017-06-27T19:37:32.113Z,20
2017-06-27T19:37:53.688Z,20
2017-06-27T19:38:14.660Z,20
2017-06-27T19:38:37.363Z,20
2017-06-27T19:38:59.369Z,20
2017-06-27T19:39:21.265Z,20
2017-06-27T19:39:42.305Z,20
2017-06-27T19:40:03.889Z,19.9
2017-06-27T19:40:25.550Z,19.9
2017-06-27T19:40:48.593Z,19.9
2017-06-27T19:41:11.380Z,19.8
2017-06-27T19:41:32.619Z,19.8
2017-06-27T19:41:53.838Z,19.8
2017-06-27T19:42:16.390Z,19.9
2017-06-27T19:42:37.928Z,19.9
2017-06-27T19:42:59.982Z,19.9
2017-06-27T19:43:35.294Z,19.9
2017-06-27T19:43:57.230Z,19.9
2017-06-27T19:44:17.903Z,19.9
2017-06-27T19:44:39.116Z,19.9
2017-06-27T19:45:00.597Z,19.9
2017-06-27T19:45:21.262Z,19.9
2017-06-27T19:45:41.906Z,19.8
2017-06-27T19:46:03.490Z,19.9
2017-06-27T19:46:24.937Z,19.8
2017-06-27T19:46:45.653Z,19.8
2017-06-27T19:47:07.007Z,19.8
2017-06-27T19:47:27.717Z,19.8
2017-06-27T19:47:49.200Z,19.8
2017-06-27T19:48:10.547Z,19.8
2017-06-27T19:48:31.205Z,19.8
2017-06-27T19:48:52.529Z,19.8
2017-06-27T19:49:13.226Z,19.7
2017-06-27T19:49:35.504Z,19.7
2017-06-27T19:49:56.722Z,19.7
2017-06-27T19:50:18.598Z,19.6
2017-06-27T19:50:42.034Z,19.7
2017-06-27T19:51:02.725Z,19.7
2017-06-27T19:51:23.411Z,19.8
2017-06-27T19:51:45.936Z,19.7
2017-06-27T19:52:07.598Z,19.6
2017-06-27T19:52:29.020Z,19.7
2017-06-27T19:52:49.681Z,19.6
2017-06-27T19:53:10.666Z,19.6
2017-06-27T19:53:31.348Z,19.7
2017-06-27T19:53:53.503Z,19.6
2017-06-27T19:54:14.167Z,19.7
2017-06-27T19:54:36.439Z,19.7
2017-06-27T19:54:58.942Z,19.6
2017-06-27T19:55:19.654Z,19.6
2017-06-27T19:55:40.353Z,19.7
2017-06-27T19:56:01.015Z,19.7
2017-06-27T19:56:21.701Z,19.7
2017-06-27T19:56:42.421Z,19.5
2017-06-27T19:57:03.128Z,19.5
2017-06-27T19:57:23.753Z,19.6
2017-06-27T19:57:44.404Z,19.6
2017-06-27T19:58:05.091Z,19.6
2017-06-27T19:58:25.771Z,19.6
2017-06-27T19:58:46.432Z,19.6
2017-06-27T19:59:07.902Z,19.5
2017-06-27T19:59:28.573Z,19.5
2017-06-27T19:59:49.276Z,19.6
2017-06-27T20:00:10.658Z,19.6
2017-06-27T20:00:31.336Z,19.6
2017-06-27T20:00:52.643Z,19.5
2017-06-27T20:01:13.301Z,19.4
2017-06-27T20:01:33.969Z,19.5
2017-06-27T20:01:54.618Z,19.5
2017-06-27T20:02:16.118Z,19.5
2017-06-27T20:02:36.828Z,19.5
2017-06-27T20:02:57.490Z,19.5
2017-06-27T20:03:19.134Z,19.5
2017-06-27T20:03:39.966Z,19.5
2017-06-27T20:04:03.379Z,19.5
2017-06-27T20:04:24.863Z,19.4
2017-06-27T20:04:46.007Z,19.4
2017-06-27T20:05:06.727Z,19.5
2017-06-27T20:05:27.413Z,19.5
2017-06-27T20:05:48.065Z,19.4
2017-06-27T20:06:08.890Z,19.4
2017-06-27T20:06:30.112Z,19.4
2017-06-27T20:06:51.427Z,19.4
2017-06-27T20:07:13.172Z,19.5
2017-06-27T20:07:34.006Z,19.5
2017-06-27T20:07:54.711Z,19.4
2017-06-27T20:08:15.367Z,19.4
2017-06-27T20:08:36.049Z,19.4
2017-06-27T20:08:57.585Z,19.4
2017-06-27T20:09:18.234Z,19.3
2017-06-27T20:09:38.947Z,19.3
2017-06-27T20:09:59.487Z,19.4
2017-06-27T20:10:21.989Z,19.3
2017-06-27T20:10:42.664Z,19.2
2017-06-27T20:11:03.346Z,19.3
2017-06-27T20:11:24.114Z,19.2
2017-06-27T20:11:44.905Z,19.3
2017-06-27T20:12:05.606Z,19.3
2017-06-27T20:12:26.274Z,19.3
2017-06-27T20:12:46.987Z,19.3
2017-06-27T20:13:08.500Z,19.3
2017-06-27T20:13:32.002Z,19.3
2017-06-27T20:13:52.642Z,19.2
2017-06-27T20:14:13.686Z,19.3
2017-06-27T20:14:34.367Z,19.3
2017-06-27T20:14:55.110Z,19.2
2017-06-27T20:15:18.027Z,19.3
2017-06-27T20:15:39.417Z,19.3
2017-06-27T20:16:00.072Z,19.3
2017-06-27T20:16:22.920Z,19.3
2017-06-27T20:16:44.463Z,19.3
2017-06-27T20:17:05.140Z,19.3
2017-06-27T20:17:25.898Z,19.3
2017-06-27T20:17:46.553Z,19.3
2017-06-27T20:18:07.205Z,19.3
2017-06-27T20:18:28.537Z,19.2
2017-06-27T20:18:49.571Z,19.2
2017-06-27T20:19:11.033Z,19.2
2017-06-27T20:19:31.726Z,19.2
2017-06-27T20:19:53.201Z,19.1
2017-06-27T20:20:14.524Z,19.2
2017-06-27T20:20:35.317Z,19.1
2017-06-27T20:20:55.968Z,19.1
2017-06-27T20:21:16.650Z,19.1
2017-06-27T20:21:37.340Z,19.1
2017-06-27T20:21:58.035Z,19.1
2017-06-27T20:22:18.718Z,19.1
2017-06-27T20:22:39.398Z,19.1
2017-06-27T20:23:00.201Z,19.2
2017-06-27T20:23:21.870Z,19.1
2017-06-27T20:23:42.560Z,19.1
2017-06-27T20:24:04.135Z,19.1
2017-06-27T20:24:24.903Z,19.1
2017-06-27T20:24:45.551Z,19.1
2017-06-27T20:25:06.204Z,19.1
2017-06-27T20:25:28.542Z,19.1
2017-06-27T20:25:55.039Z,19.1
2017-06-27T20:26:25.696Z,19.1
2017-06-27T20:26:46.375Z,19.1
2017-06-27T20:27:07.078Z,19.2
2017-06-27T20:27:27.740Z,19.1
2017-06-27T20:27:48.400Z,19.1
2017-06-27T20:28:09.097Z,19.1
2017-06-27T20:28:29.769Z,19
2017-06-27T20:28:50.433Z,19.1
2017-06-27T20:29:11.107Z,19.1
2017-06-27T20:29:32.506Z,19.1
2017-06-27T20:29:53.161Z,19.1
2017-06-27T20:30:14.555Z,19.1
2017-06-27T20:30:35.217Z,19.1
2017-06-27T20:30:55.917Z,19.1
2017-06-27T20:31:16.589Z,19.1
2017-06-27T20:31:37.269Z,19.1
2017-06-27T20:31:58.630Z,19.1
2017-06-27T20:32:19.332Z,19.1
2017-06-27T20:32:40.006Z,19.1
2017-06-27T20:33:00.676Z,19.1
2017-06-27T20:33:21.333Z,19.1
2017-06-27T20:33:42.972Z,19.1
2017-06-27T20:34:03.648Z,19.2
2017-06-27T20:34:25.021Z,19.1
2017-06-27T20:34:45.683Z,19.1
2017-06-27T20:35:06.356Z,19.2
2017-06-27T20:35:27.565Z,19.1
2017-06-27T20:35:48.264Z,19.1
2017-06-27T20:36:08.919Z,19.1
2017-06-27T20:36:29.584Z,19.1
2017-06-27T20:36:50.236Z,19.1
2017-06-27T20:37:10.896Z,19.1
2017-06-27T20:37:32.555Z,19.2
2017-06-27T20:37:53.232Z,19.1
2017-06-27T20:38:13.911Z,19.1
2017-06-27T20:38:34.586Z,19.1
2017-06-27T20:38:55.229Z,19.1
2017-06-27T20:39:15.889Z,19.2
2017-06-27T20:39:36.561Z,19.1
2017-06-27T20:39:57.209Z,19.1
2017-06-27T20:40:18.618Z,19.1
2017-06-27T20:40:39.271Z,19.2
2017-06-27T20:41:00.043Z,19.1
2017-06-27T20:41:22.622Z,19.1
2017-06-27T20:41:43.350Z,19.1
2017-06-27T20:42:04.000Z,19.1
2017-06-27T20:42:24.681Z,19.1
2017-06-27T20:42:45.965Z,19.1
2017-06-27T20:43:06.634Z,19.1
2017-06-27T20:43:27.319Z,19.1
2017-06-27T20:43:48.005Z,19.1
2017-06-27T20:44:09.526Z,19.1
2017-06-27T20:44:30.213Z,19.1
2017-06-27T20:44:50.873Z,19.1
2017-06-27T20:45:11.516Z,19.1
2017-06-27T20:45:32.170Z,19.2
2017-06-27T20:45:52.836Z,19.1
2017-06-27T20:46:13.543Z,19.2
2017-06-27T20:46:34.200Z,19.1
2017-06-27T20:46:54.850Z,19.2
2017-06-27T20:47:15.556Z,19.1
2017-06-27T20:47:36.203Z,19.1
2017-06-27T20:47:56.855Z,19.1
2017-06-27T20:48:17.509Z,19.1
2017-06-27T20:48:39.541Z,19.2
2017-06-27T20:49:00.225Z,19.1
2017-06-27T20:49:20.874Z,19.1
2017-06-27T20:49:42.550Z,19.1
2017-06-27T20:50:03.463Z,19.1
2017-06-27T20:50:25.022Z,19.1
2017-06-27T20:50:46.647Z,19.1
2017-06-27T20:51:08.061Z,19
2017-06-27T20:51:28.748Z,19.1
2017-06-27T20:51:49.419Z,19.1
2017-06-27T20:52:12.042Z,19.1
2017-06-27T20:52:32.725Z,19.2
2017-06-27T20:52:54.061Z,19.1
2017-06-27T20:53:15.546Z,19
2017-06-27T20:53:36.192Z,19
2017-06-27T20:53:56.843Z,19
2017-06-27T20:54:17.555Z,19
2017-06-27T20:54:39.112Z,19.1
2017-06-27T20:55:00.584Z,19
2017-06-27T20:55:21.251Z,19
2017-06-27T20:55:42.523Z,19.1
2017-06-27T20:56:03.225Z,18.9
2017-06-27T20:56:23.912Z,19
2017-06-27T20:56:45.567Z,19.1
2017-06-27T20:57:06.232Z,19
2017-06-27T20:57:27.479Z,19
2017-06-27T20:57:48.127Z,19
2017-06-27T20:58:08.809Z,19
2017-06-27T20:58:29.477Z,19
2017-06-27T20:59:09.726Z,19
2017-06-27T20:59:30.397Z,19
2017-06-27T20:59:51.066Z,19
2017-06-27T21:00:11.795Z,19
2017-06-27T21:00:32.447Z,19
2017-06-27T21:00:53.114Z,19
2017-06-27T21:01:13.825Z,19
2017-06-27T21:01:35.472Z,19
2017-06-27T21:01:57.122Z,18.9
2017-06-27T21:02:18.662Z,19
2017-06-27T21:02:40.060Z,19
2017-06-27T21:03:01.584Z,18.9
2017-06-27T21:03:23.057Z,18.9
2017-06-27T21:03:43.716Z,19
2017-06-27T21:04:05.143Z,19
2017-06-27T21:04:26.571Z,19
2017-06-27T21:04:49.079Z,18.9
2017-06-27T21:05:10.565Z,19
2017-06-27T21:05:32.037Z,18.9
2017-06-27T21:05:52.730Z,18.9
2017-06-27T21:06:14.090Z,18.9
2017-06-27T21:06:34.774Z,19
2017-06-27T21:06:55.425Z,18.9
2017-06-27T21:07:16.957Z,18.9
2017-06-27T21:07:37.645Z,18.9
2017-06-27T21:07:58.322Z,18.9
2017-06-27T21:08:20.593Z,18.9
2017-06-27T21:08:41.308Z,18.9
2017-06-27T21:09:01.951Z,18.9
2017-06-27T21:09:22.605Z,18.9
2017-06-27T21:09:43.301Z,18.9
2017-06-27T21:10:03.971Z,18.9
2017-06-27T21:10:24.649Z,18.9
2017-06-27T21:10:45.366Z,18.8
2017-06-27T21:11:06.031Z,18.8
2017-06-27T21:11:26.720Z,18.9
2017-06-27T21:11:47.398Z,18.8
2017-06-27T21:12:08.041Z,18.9
2017-06-27T21:12:28.687Z,18.8
2017-06-27T21:12:50.144Z,18.8
2017-06-27T21:13:10.795Z,18.8
2017-06-27T21:13:33.066Z,18.8
2017-06-27T21:13:53.813Z,18.8
2017-06-27T21:14:15.053Z,18.8
2017-06-27T21:14:37.572Z,18.7
2017-06-27T21:14:58.272Z,18.8
2017-06-27T21:15:18.929Z,18.8
2017-06-27T21:15:39.585Z,18.8
2017-06-27T21:16:00.248Z,18.7
2017-06-27T21:16:20.934Z,18.8
2017-06-27T21:16:41.592Z,18.8
2017-06-27T21:17:03.048Z,18.7
2017-06-27T21:17:23.744Z,18.8
2017-06-27T21:17:44.414Z,18.7
2017-06-27T21:18:05.082Z,18.7
2017-06-27T21:18:26.622Z,18.7
2017-06-27T21:18:47.284Z,18.7
2017-06-27T21:19:08.010Z,18.7
2017-06-27T21:19:28.682Z,18.7
2017-06-27T21:19:49.346Z,18.7
2017-06-27T21:20:10.015Z,18.7
2017-06-27T21:20:31.580Z,18.7
2017-06-27T21:20:53.572Z,18.7
2017-06-27T21:21:15.043Z,18.7
2017-06-27T21:21:35.814Z,18.7
2017-06-27T21:21:57.050Z,18.7
2017-06-27T21:22:17.705Z,18.7
2017-06-27T21:22:38.399Z,18.7
2017-06-27T21:22:59.082Z,18.7
2017-06-27T21:23:19.776Z,18.7
2017-06-27T21:23:40.474Z,18.7
2017-06-27T21:24:01.171Z,18.7
2017-06-27T21:24:22.661Z,18.7
2017-06-27T21:24:45.004Z,18.7
2017-06-27T21:25:06.582Z,18.6
2017-06-27T21:25:27.974Z,18.6
2017-06-27T21:25:48.680Z,18.6
2017-06-27T21:26:09.323Z,18.7
2017-06-27T21:26:30.028Z,18.6
2017-06-27T21:26:51.473Z,18.6
2017-06-27T21:27:12.144Z,18.7
2017-06-27T21:27:32.800Z,18.6
2017-06-27T21:27:53.482Z,18.6
2017-06-27T21:28:14.151Z,18.7
2017-06-27T21:28:34.851Z,18.7
2017-06-27T21:28:55.513Z,18.7
2017-06-27T21:29:16.207Z,18.6
2017-06-27T21:29:38.578Z,18.7
2017-06-27T21:29:59.290Z,18.6
2017-06-27T21:30:20.593Z,18.7
2017-06-27T21:30:41.300Z,18.6
2017-06-27T21:31:01.972Z,18.6
2017-06-27T21:31:22.664Z,18.7
2017-06-27T21:31:43.331Z,18.6
2017-06-27T21:32:04.583Z,18.6
2017-06-27T21:32:25.267Z,18.6
2017-06-27T21:32:45.943Z,18.6
2017-06-27T21:33:06.619Z,18.6
2017-06-27T21:33:27.309Z,18.6
2017-06-27T21:33:48.010Z,18.7
2017-06-27T21:34:08.664Z,18.6
2017-06-27T21:34:29.368Z,18.6
2017-06-27T21:34:50.035Z,18.6
2017-06-27T21:35:10.684Z,18.6
2017-06-27T21:35:32.122Z,18.6
2017-06-27T21:35:52.809Z,18.6
2017-06-27T21:36:13.981Z,18.6
2017-06-27T21:36:34.697Z,18.6
2017-06-27T21:36:55.339Z,18.6
2017-06-27T21:37:16.005Z,18.6
2017-06-27T21:37:36.687Z,18.6
2017-06-27T21:37:57.451Z,18.6
2017-06-27T21:38:18.111Z,18.6
2017-06-27T21:38:38.809Z,18.6
2017-06-27T21:38:59.483Z,18.6
2017-06-27T21:39:21.157Z,18.6
2017-06-27T21:39:43.841Z,18.6
2017-06-27T21:40:05.749Z,18.6
2017-06-27T21:40:27.204Z,18.5
2017-06-27T21:40:47.959Z,18.6
2017-06-27T21:41:08.647Z,18.6
2017-06-27T21:41:29.337Z,18.5
2017-06-27T21:41:49.990Z,18.6
2017-06-27T21:42:10.656Z,18.6
2017-06-27T21:42:31.322Z,18.5
2017-06-27T21:42:52.010Z,18.6
2017-06-27T21:43:13.568Z,18.5
2017-06-27T21:43:34.241Z,18.6
2017-06-27T21:43:55.570Z,18.6
2017-06-27T21:44:16.248Z,18.5
2017-06-27T21:44:36.973Z,18.6
2017-06-27T21:44:57.656Z,18.5
2017-06-27T21:45:20.485Z,18.6
2017-06-27T21:45:41.165Z,18.6
2017-06-27T21:46:01.838Z,18.6
2017-06-27T21:46:23.113Z,18.6
2017-06-27T21:46:43.812Z,18.5
2017-06-27T21:47:05.091Z,18.6
2017-06-27T21:47:25.779Z,18.5
2017-06-27T21:47:46.486Z,18.5
2017-06-27T21:48:07.158Z,18.6
2017-06-27T21:48:27.826Z,18.6
2017-06-27T21:48:49.140Z,18.6
2017-06-27T21:49:09.872Z,18.5
2017-06-27T21:49:32.489Z,18.5
2017-06-27T21:49:54.988Z,18.5
2017-06-27T21:50:16.627Z,18.5
2017-06-27T21:50:37.339Z,18.5
2017-06-27T21:50:58.044Z,18.5
2017-06-27T21:51:18.704Z,18.6
2017-06-27T21:51:39.394Z,18.6
2017-06-27T21:52:00.037Z,18.6
2017-06-27T21:52:21.567Z,18.5
2017-06-27T21:52:42.249Z,18.5
2017-06-27T21:53:03.495Z,18.5
2017-06-27T21:53:24.172Z,18.5
2017-06-27T21:53:44.849Z,18.5
2017-06-27T21:54:05.521Z,18.4
2017-06-27T21:54:26.993Z,18.5
2017-06-27T21:54:47.687Z,18.4
2017-06-27T21:55:08.340Z,18.6
2017-06-27T21:55:29.008Z,18.5
2017-06-27T21:55:49.683Z,18.5
2017-06-27T21:56:11.175Z,18.5
2017-06-27T21:56:31.819Z,18.5
2017-06-27T21:56:52.501Z,18.4
2017-06-27T21:57:13.184Z,18.5
2017-06-27T21:57:33.888Z,18.4
2017-06-27T21:57:54.695Z,18.5
2017-06-27T21:58:15.354Z,18.5
2017-06-27T21:58:36.679Z,18.4
2017-06-27T21:58:57.344Z,18.5
2017-06-27T21:59:18.012Z,18.4
2017-06-27T21:59:39.499Z,18.4
2017-06-27T22:00:00.165Z,18.3
2017-06-27T22:00:20.848Z,18.3
2017-06-27T22:00:41.569Z,18.3
2017-06-27T22:01:02.238Z,18.4
2017-06-27T22:01:23.006Z,18.3
2017-06-27T22:01:43.659Z,18.4
2017-06-27T22:02:05.214Z,18.3
2017-06-27T22:02:25.896Z,18.4
2017-06-27T22:02:47.127Z,18.3
2017-06-27T22:03:07.792Z,18.4
2017-06-27T22:03:29.116Z,18.3
2017-06-27T22:03:49.859Z,18.3
2017-06-27T22:04:10.524Z,18.3
2017-06-27T22:04:31.180Z,18.3
2017-06-27T22:04:51.837Z,18.3
2017-06-27T22:05:12.511Z,18.3
2017-06-27T22:05:33.181Z,18.2
2017-06-27T22:05:53.853Z,18.4
2017-06-27T22:06:14.512Z,18.4
2017-06-27T22:06:36.190Z,18.4
2017-06-27T22:06:56.855Z,18.4
2017-06-27T22:07:18.168Z,18.3
2017-06-27T22:07:38.967Z,18.2
2017-06-27T22:08:00.609Z,18.2
2017-06-27T22:08:23.122Z,18.3
2017-06-27T22:08:43.827Z,18.3
2017-06-27T22:09:04.472Z,18.3
2017-06-27T22:09:25.159Z,18.2
2017-06-27T22:09:45.970Z,18.2
2017-06-27T22:10:06.650Z,18.3
2017-06-27T22:10:27.307Z,18.2
2017-06-27T22:10:47.973Z,18.3
2017-06-27T22:11:08.661Z,18.3
2017-06-27T22:11:29.334Z,18.2
2017-06-27T22:11:50.685Z,18.2
2017-06-27T22:12:11.384Z,18.3
2017-06-27T22:12:32.035Z,18.2
2017-06-27T22:12:52.769Z,18.2
2017-06-27T22:13:13.419Z,18.3
2017-06-27T22:13:34.627Z,18.2
2017-06-27T22:13:55.298Z,18.3
2017-06-27T22:14:15.981Z,18.1
2017-06-27T22:14:37.550Z,18.3
2017-06-27T22:14:58.267Z,18.3
2017-06-27T22:15:18.911Z,18.3
2017-06-27T22:15:40.511Z,18.1
2017-06-27T22:16:01.228Z,18.2
2017-06-27T22:16:21.918Z,18.2
2017-06-27T22:16:42.730Z,18.2
2017-06-27T22:17:03.402Z,18.3
2017-06-27T22:17:24.069Z,18.2
2017-06-27T22:17:44.759Z,18.3
2017-06-27T22:18:05.433Z,18.2
2017-06-27T22:18:26.130Z,18.2
2017-06-27T22:18:46.815Z,18.2
2017-06-27T22:19:07.482Z,18.2
2017-06-27T22:19:28.137Z,18.2
2017-06-27T22:19:49.760Z,18.2
2017-06-27T22:20:10.419Z,18.2
2017-06-27T22:20:31.128Z,18.2
2017-06-27T22:20:51.834Z,18.2
2017-06-27T22:21:12.542Z,18.1
2017-06-27T22:21:34.046Z,18.2
2017-06-27T22:21:54.697Z,18.2
2017-06-27T22:22:15.369Z,18.3
2017-06-27T22:22:36.071Z,18.2
2017-06-27T22:22:56.764Z,18.2
2017-06-27T22:23:17.502Z,18.2
2017-06-27T22:23:38.188Z,18.1
2017-06-27T22:23:58.848Z,18.1
2017-06-27T22:24:20.050Z,18.1
2017-06-27T22:24:40.767Z,18.1
2017-06-27T22:25:01.466Z,18.1
2017-06-27T22:25:22.137Z,18.1
2017-06-27T22:25:42.801Z,18.1
2017-06-27T22:26:03.518Z,18.1
2017-06-27T22:26:24.178Z,18.2
2017-06-27T22:26:44.844Z,18.1
2017-06-27T22:27:05.499Z,18
2017-06-27T22:27:26.181Z,18
2017-06-27T22:27:46.870Z,18.1
2017-06-27T22:28:07.537Z,18.1
2017-06-27T22:28:28.225Z,18.1
2017-06-27T22:28:48.903Z,18
2017-06-27T22:29:09.586Z,18
2017-06-27T22:29:30.274Z,18.1
2017-06-27T22:29:50.915Z,18.1
2017-06-27T22:30:11.596Z,18.1
2017-06-27T22:30:32.248Z,18
2017-06-27T22:30:53.630Z,18.1
2017-06-27T22:31:14.307Z,18.1
2017-06-27T22:31:35.615Z,18.1
2017-06-27T22:31:56.264Z,18.1
2017-06-27T22:32:16.947Z,18.1
2017-06-27T22:32:38.251Z,18.1
2017-06-27T22:32:58.930Z,18
2017-06-27T22:33:19.614Z,18
2017-06-27T22:33:40.288Z,18
2017-06-27T22:34:01.014Z,18
2017-06-27T22:34:21.656Z,18
2017-06-27T22:34:43.024Z,18
2017-06-27T22:35:03.709Z,17.9
2017-06-27T22:35:24.410Z,18
2017-06-27T22:35:45.150Z,18
2017-06-27T22:36:05.858Z,18
2017-06-27T22:36:27.147Z,17.9
2017-06-27T22:36:47.827Z,18
2017-06-27T22:37:09.179Z,17.9
2017-06-27T22:37:30.760Z,17.9
2017-06-27T22:37:51.437Z,17.9
2017-06-27T22:38:12.715Z,17.9
2017-06-27T22:38:33.446Z,17.9
2017-06-27T22:38:54.143Z,17.9
2017-06-27T22:39:14.810Z,17.9
2017-06-27T22:39:36.249Z,18
2017-06-27T22:39:56.932Z,17.9
2017-06-27T22:40:17.627Z,17.9
2017-06-27T22:40:38.326Z,17.9
2017-06-27T22:40:59.708Z,17.9
2017-06-27T22:41:20.413Z,17.9
2017-06-27T22:41:41.074Z,18
2017-06-27T22:42:01.765Z,17.9
2017-06-27T22:42:22.412Z,17.8
2017-06-27T22:42:43.783Z,17.9
2017-06-27T22:43:04.478Z,17.9
2017-06-27T22:43:25.134Z,17.8
2017-06-27T22:43:45.782Z,17.8
2017-06-27T22:44:07.156Z,17.8
2017-06-27T22:44:27.805Z,17.8
2017-06-27T22:44:49.231Z,17.8
2017-06-27T22:45:09.936Z,17.9
2017-06-27T22:45:31.136Z,17.8
2017-06-27T22:45:51.829Z,17.8
2017-06-27T22:46:13.285Z,17.7
2017-06-27T22:46:34.615Z,17.9
2017-06-27T22:46:55.301Z,17.8
2017-06-27T22:47:15.975Z,17.9
2017-06-27T22:47:36.724Z,17.8
2017-06-27T22:47:57.411Z,17.7
2017-06-27T22:48:18.068Z,17.7
2017-06-27T22:48:40.160Z,17.7
2017-06-27T22:49:01.651Z,17.7
2017-06-27T22:49:22.307Z,17.7
2017-06-27T22:49:43.691Z,17.7
2017-06-27T22:50:05.163Z,17.6
2017-06-27T22:50:26.728Z,17.6
2017-06-27T22:50:47.409Z,17.6
2017-06-27T22:51:08.096Z,17.6
2017-06-27T22:51:28.828Z,17.7
2017-06-27T22:51:49.527Z,17.6
2017-06-27T22:52:10.252Z,17.6
2017-06-27T22:52:30.933Z,17.6
2017-06-27T22:52:51.593Z,17.6
2017-06-27T22:53:13.200Z,17.6
2017-06-27T22:53:33.862Z,17.6
2017-06-27T22:53:54.804Z,17.5
2017-06-27T22:54:16.291Z,17.5
2017-06-27T22:54:36.979Z,17.5
2017-06-27T22:54:57.694Z,17.5
2017-06-27T22:55:19.120Z,17.5
2017-06-27T22:55:39.845Z,17.5
2017-06-27T22:56:01.287Z,17.4
2017-06-27T22:56:23.673Z,17.4
2017-06-27T22:56:44.374Z,17.4
2017-06-27T22:57:06.658Z,17.4
2017-06-27T22:57:27.323Z,17.5
2017-06-27T22:57:48.644Z,17.4
2017-06-27T22:58:09.571Z,17.5
2017-06-27T22:58:30.260Z,17.4
2017-06-27T22:58:51.015Z,17.4
2017-06-27T22:59:11.752Z,17.3
2017-06-27T22:59:32.471Z,17.3
2017-06-27T22:59:53.667Z,17.3
2017-06-27T23:00:14.358Z,17.4
2017-06-27T23:00:35.074Z,17.4
2017-06-27T23:00:55.762Z,17.3
2017-06-27T23:01:16.494Z,17.4
2017-06-27T23:01:37.725Z,17.3
2017-06-27T23:02:00.059Z,17.3
2017-06-27T23:02:20.732Z,17.2
2017-06-27T23:02:41.416Z,17.2
2017-06-27T23:03:02.179Z,17.3
2017-06-27T23:03:25.568Z,17.2
2017-06-27T23:03:46.329Z,17.2
2017-06-27T23:04:07.024Z,17.2
2017-06-27T23:04:27.690Z,17.2
2017-06-27T23:04:48.459Z,17.2
2017-06-27T23:05:09.140Z,17.1
2017-06-27T23:05:29.833Z,17.2
2017-06-27T23:05:50.526Z,17.2
2017-06-27T23:06:11.836Z,17.2
2017-06-27T23:06:32.544Z,17.2
2017-06-27T23:06:53.821Z,17.1
2017-06-27T23:07:14.507Z,17.1
2017-06-27T23:07:35.209Z,17.1
2017-06-27T23:07:56.550Z,17.1
2017-06-27T23:08:17.234Z,17.1
2017-06-27T23:08:37.957Z,17.2
2017-06-27T23:08:58.678Z,17.1
2017-06-27T23:09:19.350Z,17.1
2017-06-27T23:09:40.041Z,17.2
2017-06-27T23:10:00.695Z,17.2
2017-06-27T23:10:21.364Z,17.2
2017-06-27T23:10:42.027Z,17.1
2017-06-27T23:11:03.674Z,17.1
2017-06-27T23:11:24.370Z,17.1
2017-06-27T23:11:45.041Z,17.1
2017-06-27T23:12:07.131Z,17.2
2017-06-27T23:12:27.824Z,17.2
2017-06-27T23:12:48.509Z,17.1
2017-06-27T23:13:09.186Z,17.1
2017-06-27T23:13:30.752Z,17.1
2017-06-27T23:13:51.470Z,17.2
2017-06-27T23:14:12.154Z,17
2017-06-27T23:14:32.830Z,17
2017-06-27T23:14:53.525Z,17
2017-06-27T23:15:14.189Z,17.1
2017-06-27T23:15:34.832Z,17
2017-06-27T23:15:56.055Z,17.1
2017-06-27T23:16:16.725Z,17
2017-06-27T23:16:38.235Z,17.1
2017-06-27T23:16:58.919Z,17.1
2017-06-27T23:17:19.612Z,17
2017-06-27T23:17:40.329Z,17
2017-06-27T23:18:01.026Z,17
2017-06-27T23:18:22.665Z,17
2017-06-27T23:18:43.364Z,17
2017-06-27T23:19:04.058Z,17
2017-06-27T23:19:24.735Z,17
2017-06-27T23:19:45.432Z,17
2017-06-27T23:20:06.766Z,17.1
2017-06-27T23:20:27.451Z,17
2017-06-27T23:20:48.127Z,17
2017-06-27T23:21:08.794Z,16.9
2017-06-27T23:21:29.470Z,17
2017-06-27T23:21:50.658Z,17
2017-06-27T23:22:11.381Z,17
2017-06-27T23:22:32.074Z,17
2017-06-27T23:22:53.759Z,17
2017-06-27T23:23:14.480Z,17
2017-06-27T23:23:35.179Z,17
2017-06-27T23:23:55.896Z,17
2017-06-27T23:24:16.631Z,17
2017-06-27T23:24:37.293Z,17
2017-06-27T23:24:59.760Z,16.9
2017-06-27T23:25:20.470Z,17
2017-06-27T23:25:41.156Z,17
2017-06-27T23:26:01.862Z,17
2017-06-27T23:26:22.579Z,17
2017-06-27T23:26:44.743Z,17
2017-06-27T23:27:06.365Z,16.9
2017-06-27T23:27:27.647Z,16.9
2017-06-27T23:27:48.300Z,16.9
2017-06-27T23:28:09.565Z,17
2017-06-27T23:28:30.271Z,16.9
2017-06-27T23:28:51.626Z,16.9
2017-06-27T23:29:12.314Z,16.9
2017-06-27T23:29:33.790Z,16.9
2017-06-27T23:29:54.491Z,16.9
2017-06-27T23:30:15.197Z,16.9
2017-06-27T23:30:35.870Z,17
2017-06-27T23:30:56.547Z,16.8
2017-06-27T23:31:18.228Z,16.7
2017-06-27T23:31:38.922Z,16.8
2017-06-27T23:31:59.580Z,16.8
2017-06-27T23:32:20.278Z,16.8
2017-06-27T23:32:40.959Z,16.8
2017-06-27T23:33:01.644Z,16.8
2017-06-27T23:33:23.186Z,16.7
2017-06-27T23:33:43.873Z,16.8
2017-06-27T23:34:04.545Z,16.8
2017-06-27T23:34:25.205Z,16.8
2017-06-27T23:34:46.659Z,16.8
2017-06-27T23:35:07.333Z,16.8
2017-06-27T23:35:27.987Z,16.7
2017-06-27T23:35:48.687Z,16.7
2017-06-27T23:36:09.374Z,16.7
2017-06-27T23:36:30.036Z,16.8
2017-06-27T23:36:50.752Z,16.7
2017-06-27T23:37:11.471Z,16.7
2017-06-27T23:37:32.174Z,16.8
2017-06-27T23:37:53.602Z,16.7
2017-06-27T23:38:14.855Z,16.7
2017-06-27T23:38:35.555Z,16.8
2017-06-27T23:38:56.224Z,16.7
2017-06-27T23:39:16.903Z,16.6
2017-06-27T23:39:37.564Z,16.7
2017-06-27T23:39:59.071Z,16.6
2017-06-27T23:40:19.719Z,16.5